Time;durP1;ratioP1;P1;durP2;ratioP2;P2;SDS_P1;SDS_P2;PMS_P1;PMS_P2;Temp;Humidity;BMP_temperature;BMP_pressure;BME280_temperature;BME280_humidity;BME280_pressure;Samples;Min_cycle;Max_cycle;Signal;HPM_P1;HPM_P2
2021/04/14 00:01:51;;;;;;;2.28;1.13;;;;;;;1.46;71.87;101496.13;5106228;28;20051;-65
2021/04/14 00:04:16;;;;;;;4.28;1.33;;;;;;;1.50;71.94;101499.72;5106840;28;20076;-65
2021/04/14 00:06:45;;;;;;;2.67;1.15;;;;;;;1.51;71.85;101498.91;5106340;28;20024;-66
2021/04/14 00:09:10;;;;;;;2.22;1.17;;;;;;;1.51;72.00;101496.34;5106319;28;20034;-64
2021/04/14 00:11:37;;;;;;;1.60;0.88;;;;;;;1.48;72.05;101490.31;5106450;28;20055;-65
2021/04/14 00:14:04;;;;;;;1.63;1.15;;;;;;;1.53;72.12;101498.19;5106116;28;20270;-63
2021/04/14 00:16:30;;;;;;;1.23;0.82;;;;;;;1.52;71.95;101490.44;5106355;28;20550;-65
2021/04/14 00:18:55;;;;;;;3.25;1.15;;;;;;;1.46;71.89;101489.34;5106350;28;20012;-65
2021/04/14 00:21:24;;;;;;;3.92;1.25;;;;;;;1.51;72.02;101496.34;5105867;28;20102;-65
2021/04/14 00:23:50;;;;;;;1.85;1.10;;;;;;;1.50;72.12;101492.03;5106386;28;20015;-65
2021/04/14 00:26:16;;;;;;;2.20;1.00;;;;;;;1.50;72.08;101494.59;5106174;28;20028;-64
2021/04/14 00:28:42;;;;;;;3.10;1.38;;;;;;;1.50;72.19;101497.16;5106053;28;20020;-65
2021/04/14 00:31:08;;;;;;;2.72;0.98;;;;;;;1.50;72.20;101499.72;5105972;28;20092;-65
2021/04/14 00:33:35;;;;;;;3.42;2.05;;;;;;;1.48;72.17;101503.09;5105939;28;20024;-65
2021/04/14 00:36:00;;;;;;;3.70;1.00;;;;;;;1.48;72.11;101503.09;5105973;28;20028;-64
2021/04/14 00:38:26;;;;;;;3.83;1.40;;;;;;;1.47;72.26;101506.44;5105954;28;20072;-64
2021/04/14 00:41:06;;;;;;;1.60;1.50;;;;;;;1.45;71.95;101507.19;5105838;28;20044;-64
2021/04/14 00:43:35;;;;;;;3.03;1.30;;;;;;;1.45;72.10;101512.31;5105785;28;20035;-65
2021/04/14 00:46:01;;;;;;;2.22;1.10;;;;;;;1.41;71.92;101511.28;5105743;28;20084;-64
2021/04/14 00:48:27;;;;;;;1.58;1.00;;;;;;;1.34;72.24;101504.97;5105794;28;20024;-64
2021/04/14 00:50:52;;;;;;;4.35;1.20;;;;;;;1.31;72.14;101511.66;5105699;28;20240;-64
2021/04/14 00:53:18;;;;;;;2.78;1.45;;;;;;;1.35;72.08;101513.53;5105596;28;20028;-65
2021/04/14 00:55:44;;;;;;;5.40;1.00;;;;;;;1.34;71.88;101516.91;5105186;28;20030;-64
2021/04/14 00:58:09;;;;;;;3.88;1.27;;;;;;;1.31;72.28;101509.09;5105503;28;20444;-64
2021/04/14 01:00:38;;;;;;;5.47;1.25;;;;;;;1.32;72.18;101514.28;5105664;28;20030;-64
2021/04/14 01:03:06;;;;;;;3.58;1.20;;;;;;;1.31;72.17;101519.34;5105295;28;20111;-64
2021/04/14 01:05:33;;;;;;;3.17;1.30;;;;;;;1.32;72.29;101515.97;5105203;28;20020;-64
2021/04/14 01:07:59;;;;;;;3.13;1.20;;;;;;;1.25;72.23;101504.56;5105023;28;20020;-64
2021/04/14 01:10:25;;;;;;;2.33;0.85;;;;;;;1.32;72.21;101516.84;5104667;28;20076;-64
2021/04/14 01:12:51;;;;;;;2.97;1.10;;;;;;;1.32;72.24;101521.97;5105250;28;20334;-65
2021/04/14 01:15:25;;;;;;;3.85;1.08;;;;;;;1.32;72.17;101515.97;5105312;28;20523;-65
2021/04/14 01:17:51;;;;;;;2.38;1.05;;;;;;;1.30;72.48;101513.34;5105355;28;20161;-65
2021/04/14 01:20:17;;;;;;;6.05;1.20;;;;;;;1.31;72.36;101519.34;5105072;28;20062;-64
2021/04/14 01:22:43;;;;;;;5.05;1.17;;;;;;;1.29;72.38;101519.25;5104881;28;20054;-65
2021/04/14 01:25:10;;;;;;;2.83;1.00;;;;;;;1.30;72.27;101521.00;5105169;28;20027;-64
2021/04/14 01:27:36;;;;;;;5.75;1.08;;;;;;;1.30;72.45;101528.69;5105230;28;20084;-64
2021/04/14 01:30:09;;;;;;;1.63;0.85;;;;;;;1.31;72.50;101527.88;5105010;28;20042;-64
2021/04/14 01:32:34;;;;;;;4.85;1.20;;;;;;;1.30;72.26;101528.69;5104930;28;20020;-64
2021/04/14 01:35:00;;;;;;;2.17;1.10;;;;;;;1.30;72.34;101530.34;5104936;28;20020;-63
2021/04/14 01:37:25;;;;;;;4.93;1.00;;;;;;;1.28;72.29;101521.75;5104587;28;20024;-64
2021/04/14 01:39:50;;;;;;;2.20;0.98;;;;;;;1.33;72.23;101530.50;5104942;28;20058;-64
2021/04/14 01:42:16;;;;;;;2.95;1.10;;;;;;;1.33;72.25;101528.81;5104550;28;20024;-63
2021/04/14 01:44:41;;;;;;;2.58;1.10;;;;;;;1.36;72.38;101530.63;5104803;28;20043;-64
2021/04/14 01:47:07;;;;;;;2.33;0.95;;;;;;;1.40;72.33;101534.22;5104628;28;20468;-65
2021/04/14 01:49:32;;;;;;;3.45;1.17;;;;;;;1.41;72.33;101541.09;5104658;28;20032;-65
2021/04/14 01:51:57;;;;;;;4.85;1.20;;;;;;;1.42;72.03;101536.06;5104353;28;20024;-64
2021/04/14 01:54:23;;;;;;;1.63;0.90;;;;;;;1.41;72.19;101541.97;5104490;28;20027;-65
2021/04/14 01:56:48;;;;;;;1.30;0.93;;;;;;;1.38;71.85;101539.28;5104266;28;20071;-63
2021/04/14 01:59:16;;;;;;;3.17;1.20;;;;;;;1.42;72.00;101542.88;5104295;28;20043;-64
2021/04/14 02:01:42;;;;;;;6.57;1.15;;;;;;;1.43;71.89;101542.06;5104220;28;20027;-65
2021/04/14 02:04:07;;;;;;;2.83;1.05;;;;;;;1.40;71.74;101544.47;5104368;28;20016;-63
2021/04/14 02:06:32;;;;;;;3.85;0.90;;;;;;;1.37;71.63;101545.22;5104124;28;20051;-63
2021/04/14 02:08:57;;;;;;;1.60;1.00;;;;;;;1.35;71.61;101539.13;5104510;28;20020;-63
2021/04/14 02:11:23;;;;;;;4.50;1.00;;;;;;;1.29;71.64;101541.41;5104337;28;20064;-65
2021/04/14 02:13:48;;;;;;;3.10;0.88;;;;;;;1.28;71.97;101540.50;5104100;28;20028;-64
2021/04/14 02:16:20;;;;;;;3.00;0.90;;;;;;;1.27;72.02;101543.00;5086092;28;20035;-65
2021/04/14 02:18:46;;;;;;;2.08;1.13;;;;;;;1.27;72.00;101543.88;5104275;28;20083;-65
2021/04/14 02:21:12;;;;;;;1.75;1.00;;;;;;;1.31;71.91;101544.91;5104147;28;20024;-64
2021/04/14 02:23:41;;;;;;;2.30;1.23;;;;;;;1.30;72.14;101544.03;5103962;28;20020;-64
2021/04/14 02:26:11;;;;;;;3.40;1.60;;;;;;;1.30;71.75;101546.59;5104069;28;20028;-65
2021/04/14 02:28:36;;;;;;;2.33;1.38;;;;;;;1.28;71.90;101553.31;5104152;28;20024;-64
2021/04/14 02:31:03;;;;;;;3.55;1.27;;;;;;;1.25;72.02;101549.75;5104161;28;20020;-64
2021/04/14 02:33:28;;;;;;;3.35;1.35;;;;;;;1.25;71.97;101550.59;5103979;28;20047;-64
2021/04/14 02:35:55;;;;;;;2.22;1.27;;;;;;;1.20;71.94;101545.25;5103881;28;20442;-65
2021/04/14 02:38:22;;;;;;;4.10;1.48;;;;;;;1.21;72.00;101546.16;5103433;28;20105;-64
2021/04/14 02:40:49;;;;;;;2.10;1.20;;;;;;;1.19;71.96;101553.75;5103834;28;20083;-64
2021/04/14 02:43:14;;;;;;;1.80;1.27;;;;;;;1.19;72.29;101550.31;5103733;28;20028;-64
2021/04/14 02:45:40;;;;;;;4.38;1.38;;;;;;;1.20;72.11;101552.06;5104021;28;20059;-64
2021/04/14 02:48:07;;;;;;;8.65;1.33;;;;;;;1.21;72.13;101557.28;5104002;28;20042;-64
2021/04/14 02:50:32;;;;;;;2.67;1.15;;;;;;;1.24;72.13;101553.97;5104053;28;20101;-64
2021/04/14 02:52:58;;;;;;;4.65;1.40;;;;;;;1.25;72.04;101557.41;5103527;28;20036;-64
2021/04/14 02:55:26;;;;;;;5.93;1.50;;;;;;;1.25;72.54;101559.97;5103791;28;20054;-65
2021/04/14 02:57:51;;;;;;;1.92;1.20;;;;;;;1.25;72.26;101554.88;5103432;28;20078;-65
2021/04/14 03:00:19;;;;;;;2.03;1.10;;;;;;;1.27;72.15;101556.69;5103674;28;20028;-65
2021/04/14 03:02:45;;;;;;;3.22;1.10;;;;;;;1.27;72.21;101556.69;5103415;28;20028;-65
2021/04/14 03:05:12;;;;;;;2.33;0.98;;;;;;;1.29;72.12;101554.19;5103483;28;20034;-64
2021/04/14 03:07:38;;;;;;;7.43;1.10;;;;;;;1.29;72.00;101561.88;5103321;28;20081;-64
2021/04/14 03:10:06;;;;;;;1.55;0.90;;;;;;;1.29;72.10;101562.75;5103825;28;20026;-64
2021/04/14 03:12:31;;;;;;;5.20;1.30;;;;;;;1.34;72.23;101568.09;5103301;28;20472;-64
2021/04/14 03:14:56;;;;;;;2.03;0.90;;;;;;;1.32;71.99;101562.91;5103775;28;20031;-64
2021/04/14 03:17:22;;;;;;;2.97;0.80;;;;;;;1.34;72.03;101568.09;5103607;28;20016;-64
2021/04/14 03:19:47;;;;;;;8.70;1.30;;;;;;;1.31;71.70;101560.28;5103698;28;20020;-64
2021/04/14 03:22:17;;;;;;;2.38;1.05;;;;;;;1.28;71.79;101565.25;5103502;28;20035;-65
2021/04/14 03:24:42;;;;;;;7.68;1.10;;;;;;;1.30;71.70;101571.28;5103654;28;20038;-63
2021/04/14 03:27:08;;;;;;;2.13;1.10;;;;;;;1.29;71.64;101567.88;5103651;28;20020;-63
2021/04/14 03:29:33;;;;;;;4.95;1.25;;;;;;;1.29;71.79;101567.00;5103634;28;20027;-64
2021/04/14 03:31:59;;;;;;;0.98;0.80;;;;;;;1.30;71.65;101569.63;5103792;28;20048;-64
2021/04/14 03:34:24;;;;;;;8.05;1.50;;;;;;;1.30;71.83;101571.28;5107122;28;20106;-65
2021/04/14 03:36:49;;;;;;;1.83;1.08;;;;;;;1.28;71.53;101570.34;5107245;28;20016;-65
2021/04/14 03:39:15;;;;;;;1.45;0.98;;;;;;;1.29;71.59;101567.00;5107173;28;20009;-65
2021/04/14 03:41:40;;;;;;;3.42;0.98;;;;;;;1.30;71.58;101574.75;5106877;28;20049;-66
2021/04/14 03:44:05;;;;;;;3.53;1.23;;;;;;;1.32;71.49;101578.25;5107061;28;20047;-65
2021/04/14 03:46:31;;;;;;;2.13;1.00;;;;;;;1.31;71.58;101573.94;5106917;28;20487;-65
2021/04/14 03:48:56;;;;;;;2.63;1.25;;;;;;;1.32;71.48;101582.50;5106992;28;20038;-65
2021/04/14 03:51:26;;;;;;;4.85;1.25;;;;;;;1.32;71.52;101580.81;5106987;28;20016;-65
2021/04/14 03:53:51;;;;;;;2.10;1.08;;;;;;;1.31;71.62;101584.16;5098377;28;20024;-65
2021/04/14 03:56:18;;;;;;;4.00;1.20;;;;;;;1.34;71.54;101586.00;5106726;28;20071;-65
2021/04/14 03:58:49;;;;;;;1.77;1.00;;;;;;;1.33;71.48;101589.34;5106894;28;20023;-64
2021/04/14 04:01:17;;;;;;;3.75;1.20;;;;;;;1.34;71.55;101591.13;5106786;28;20028;-65
2021/04/14 04:03:44;;;;;;;5.68;1.10;;;;;;;1.33;71.48;101597.03;5106664;28;20023;-65
2021/04/14 04:06:09;;;;;;;3.25;1.02;;;;;;;1.31;71.41;101596.09;5106475;28;20027;-65
2021/04/14 04:08:34;;;;;;;3.78;1.25;;;;;;;1.33;71.40;101609.81;5106184;28;20016;-65
2021/04/14 04:11:00;;;;;;;4.28;1.30;;;;;;;1.32;71.50;101601.28;5106440;28;20440;-65
2021/04/14 04:13:27;;;;;;;3.47;1.10;;;;;;;1.32;71.49;101603.84;5106559;28;20051;-65
2021/04/14 04:15:52;;;;;;;1.70;1.25;;;;;;;1.32;71.51;101613.19;5106421;28;20023;-66
2021/04/14 04:18:18;;;;;;;3.00;1.20;;;;;;;1.29;71.55;101607.94;5088410;28;20020;-65
2021/04/14 04:20:44;;;;;;;1.45;1.10;;;;;;;1.31;71.42;101612.31;5106193;28;20020;-66
2021/04/14 04:23:11;;;;;;;2.85;1.20;;;;;;;1.35;71.57;101619.34;5106263;28;20032;-65
2021/04/14 04:25:37;;;;;;;3.55;1.20;;;;;;;1.48;71.90;101620.84;5088127;28;20024;-65
2021/04/14 04:28:03;;;;;;;6.05;1.33;;;;;;;1.76;72.30;101621.25;5106138;28;20024;-66
2021/04/14 04:30:29;;;;;;;3.90;1.02;;;;;;;2.17;73.00;101616.31;5106194;28;20099;-68
2021/04/14 04:32:55;;;;;;;5.60;1.20;;;;;;;2.73;73.84;101625.63;5106157;28;20141;-68
2021/04/14 04:35:25;;;;;;;1.40;0.90;;;;;;;3.38;74.15;101621.44;5088131;28;20057;-67
2021/04/14 04:37:51;;;;;;;2.22;1.20;;;;;;;4.05;73.76;101627.50;5105753;28;20028;-63
2021/04/14 04:40:17;;;;;;;3.10;1.00;;;;;;;4.63;73.29;101621.91;5087541;28;20026;-62
2021/04/14 04:42:43;;;;;;;3.17;1.33;;;;;;;5.15;72.84;101621.94;5105619;28;20024;-62
2021/04/14 04:45:10;;;;;;;1.48;1.00;;;;;;;5.67;72.16;101621.88;5105996;28;20437;-65
2021/04/14 04:47:35;;;;;;;4.18;0.82;;;;;;;6.22;71.64;101630.41;5087512;28;20107;-63
2021/04/14 04:50:01;;;;;;;1.17;0.90;;;;;;;6.79;70.93;101633.72;5087560;28;20032;-63
2021/04/14 04:52:26;;;;;;;1.65;0.90;;;;;;;7.31;69.77;101629.06;5105152;28;20024;-63
2021/04/14 04:54:52;;;;;;;1.30;0.80;;;;;;;7.74;68.53;101640.38;5105609;28;20020;-63
2021/04/14 04:57:17;;;;;;;5.18;1.13;;;;;;;8.23;67.80;101638.00;5105300;28;20134;-64
2021/04/14 04:59:43;;;;;;;4.57;1.10;;;;;;;8.79;66.05;101630.50;5105164;28;20039;-63
2021/04/14 05:02:08;;;;;;;7.28;1.30;;;;;;;9.35;65.08;101634.09;5104873;28;20023;-63
2021/04/14 05:04:33;;;;;;;1.85;1.00;;;;;;;9.78;62.90;101640.78;5105031;28;20027;-63
2021/04/14 05:06:59;;;;;;;0.85;0.60;;;;;;;10.08;61.28;101641.22;5105313;28;20024;-63
2021/04/14 05:09:24;;;;;;;2.35;0.70;;;;;;;10.27;59.28;101631.94;5105106;28;20016;-63
2021/04/14 05:11:50;;;;;;;0.80;0.60;;;;;;;10.39;58.58;101645.06;5105192;28;20046;-64
2021/04/14 05:14:16;;;;;;;2.78;0.80;;;;;;;10.56;57.38;101644.41;5087186;28;20354;-68
2021/04/14 05:16:41;;;;;;;4.85;1.08;;;;;;;10.69;56.55;101642.00;5105180;28;20035;-63
2021/04/14 05:19:07;;;;;;;3.03;0.60;;;;;;;10.99;55.04;101649.19;5105386;28;20035;-65
2021/04/14 05:21:35;;;;;;;2.42;1.17;;;;;;;11.26;54.50;101649.47;5105568;28;20024;-65
2021/04/14 05:24:00;;;;;;;2.10;0.80;;;;;;;11.63;53.95;101649.75;5105241;28;20084;-67
2021/04/14 05:26:26;;;;;;;2.92;0.77;;;;;;;12.09;53.34;101656.13;5105037;28;20028;-67
2021/04/14 05:28:52;;;;;;;3.20;1.00;;;;;;;12.62;51.63;101652.91;5105306;28;20045;-66
2021/04/14 05:31:18;;;;;;;2.28;0.80;;;;;;;12.93;50.81;101650.34;5105118;28;20077;-66
2021/04/14 05:33:43;;;;;;;3.25;0.80;;;;;;;13.16;49.75;101657.34;5104828;28;20020;-65
2021/04/14 05:36:09;;;;;;;1.42;1.20;;;;;;;13.27;48.85;101662.56;5104876;28;20059;-62
2021/04/14 05:38:34;;;;;;;2.13;0.77;;;;;;;13.38;46.77;101662.56;5104253;28;20028;-66
2021/04/14 05:41:00;;;;;;;1.83;0.70;;;;;;;13.55;46.15;101665.19;5104375;28;20306;-63
2021/04/14 05:43:35;;;;;;;2.75;0.82;;;;;;;13.80;44.35;101657.31;5103552;28;20024;-63
2021/04/14 05:46:04;;;;;;;5.65;1.45;;;;;;;14.23;43.15;101663.31;5104762;28;20062;-62
2021/04/14 05:48:30;;;;;;;4.13;1.00;;;;;;;14.45;41.47;101671.06;5104442;28;20016;-62
2021/04/14 05:50:58;;;;;;;1.65;1.02;;;;;;;14.51;41.66;101671.03;5104325;28;20032;-63
2021/04/14 05:53:24;;;;;;;2.55;0.90;;;;;;;14.83;40.68;101677.88;5104127;28;20084;-62
2021/04/14 05:55:50;;;;;;;2.50;1.20;;;;;;;15.24;40.18;101673.25;5103634;28;20031;-62
2021/04/14 05:58:15;;;;;;;3.30;1.42;;;;;;;15.47;40.13;101677.44;5104413;28;20460;-63
2021/04/14 06:00:41;;;;;;;3.67;1.13;;;;;;;15.52;38.85;101681.75;5104370;28;20061;-62
2021/04/14 06:03:06;;;;;;;1.60;0.80;;;;;;;15.25;37.35;101687.19;5104160;28;20024;-62
2021/04/14 06:05:31;;;;;;;1.92;0.90;;;;;;;15.43;37.94;101682.72;5104341;28;20028;-62
2021/04/14 06:07:57;;;;;;;1.77;0.70;;;;;;;15.70;37.07;101680.72;5103850;28;20027;-62
2021/04/14 06:10:24;;;;;;;2.33;0.98;;;;;;;15.88;36.60;101682.28;5104264;28;20024;-62
2021/04/14 06:12:53;;;;;;;1.75;0.88;;;;;;;15.80;36.45;101684.97;5085691;28;20051;-62
2021/04/14 06:15:31;;;;;;;2.97;0.90;;;;;;;15.83;36.21;101690.19;5104163;28;20083;-62
2021/04/14 06:17:57;;;;;;;2.75;0.95;;;;;;;16.02;35.72;101691.78;5104302;28;20024;-63
2021/04/14 06:20:24;;;;;;;4.43;1.08;;;;;;;16.15;35.65;101695.16;5104085;28;20362;-63
2021/04/14 06:22:50;;;;;;;2.35;0.90;;;;;;;16.07;33.61;101693.47;5103741;28;20059;-64
2021/04/14 06:25:18;;;;;;;0.93;0.65;;;;;;;15.87;33.75;101696.25;5104107;28;20020;-63
2021/04/14 06:27:54;;;;;;;2.03;0.90;;;;;;;15.21;34.10;101699.44;5104055;28;20028;-63
2021/04/14 06:30:21;;;;;;;3.70;1.17;;;;;;;14.69;34.56;101698.84;5103979;28;20016;-62
2021/04/14 06:32:47;;;;;;;8.65;1.30;;;;;;;14.24;35.07;101699.00;5103508;28;20476;-63
2021/04/14 06:35:15;;;;;;;4.80;1.50;;;;;;;14.16;35.09;101696.41;5103973;28;20044;-63
2021/04/14 06:37:40;;;;;;;2.95;1.30;;;;;;;13.95;35.43;101689.50;5103888;28;20028;-63
2021/04/14 06:46:31;;;;;;;4.53;1.52;;;;;;;13.99;35.71;101693.84;5074152;28;20028;-61
2021/04/14 06:49:00;;;;;;;;;;;;;;;14.00;35.26;101700.81;5104153;28;20020;-60
2021/04/14 06:51:38;;;;;;;5.10;1.80;;;;;;;14.10;35.97;101699.94;5103746;28;19968;-63
2021/04/14 06:54:22;;;;;;;6.78;1.60;;;;;;;13.78;35.40;101708.69;5103770;28;20028;-63
2021/04/14 06:56:59;;;;;;;6.90;1.65;;;;;;;13.26;35.84;101710.34;5103446;28;20050;-63
2021/04/14 06:59:27;;;;;;;13.10;2.25;;;;;;;13.30;36.03;101701.69;5103836;28;20016;-63
2021/04/14 07:02:01;;;;;;;10.25;2.00;;;;;;;13.44;36.90;101711.25;5103686;28;20027;-62
2021/04/14 07:05:11;;;;;;;12.52;2.63;;;;;;;13.99;35.73;101714.75;5103590;28;20518;-62
2021/04/14 07:07:39;;;;;;;8.43;1.60;;;;;;;14.17;34.72;101720.81;5099366;28;20036;-62
2021/04/14 07:10:21;;;;;;;9.30;1.50;;;;;;;14.24;34.98;101728.63;5107929;28;20095;-63
2021/04/14 07:12:47;;;;;;;5.22;1.35;;;;;;;14.31;33.83;101723.38;5107424;28;20054;-62
2021/04/14 07:15:19;;;;;;;8.30;1.42;;;;;;;14.05;33.75;101725.19;5107713;28;20097;-62
2021/04/14 07:18:02;;;;;;;4.70;1.13;;;;;;;14.09;33.71;101726.91;5107598;28;20099;-62
2021/04/14 07:20:35;;;;;;;3.60;1.35;;;;;;;14.00;33.19;101737.34;5107508;28;20050;-62
2021/04/14 07:23:03;;;;;;;4.82;0.80;;;;;;;14.07;33.87;101733.00;5107139;28;20038;-62
2021/04/14 07:25:51;;;;;;;2.97;1.00;;;;;;;14.61;33.07;101735.47;5107384;28;20044;-62
2021/04/14 07:28:38;;;;;;;13.20;1.33;;;;;;;15.16;32.51;101739.59;5107210;28;20469;-62
2021/04/14 07:31:21;;;;;;;3.08;0.90;;;;;;;15.60;31.67;101735.78;5107027;28;20067;-62
2021/04/14 07:34:08;;;;;;;2.28;0.90;;;;;;;15.97;30.90;101741.56;5107132;28;20031;-63
2021/04/14 07:37:01;;;;;;;2.15;1.02;;;;;;;15.69;29.41;101745.28;5107235;28;20109;-63
2021/04/14 07:39:58;;;;;;;1.85;1.00;;;;;;;15.52;30.36;101747.19;5107103;28;20058;-62
2021/04/14 07:42:39;;;;;;;3.42;0.70;;;;;;;15.56;29.94;101754.16;5107101;28;20464;-62
2021/04/14 07:45:05;;;;;;;4.95;0.80;;;;;;;15.66;29.89;101757.53;5107014;28;20028;-62
2021/04/14 07:47:34;;;;;;;4.18;1.00;;;;;;;15.69;30.09;101755.75;5106925;28;20035;-62
2021/04/14 07:49:59;;;;;;;8.40;1.33;;;;;;;15.90;29.87;101769.56;5106969;28;20020;-62
2021/04/14 07:52:31;;;;;;;5.32;1.08;;;;;;;16.67;28.70;101760.94;5106393;28;20030;-63
2021/04/14 07:54:57;;;;;;;2.90;0.57;;;;;;;16.71;27.56;101763.50;5107142;28;20047;-62
2021/04/14 07:57:32;;;;;;;4.32;0.80;;;;;;;16.58;27.46;101765.38;5106643;28;20048;-62
2021/04/14 08:00:32;;;;;;;3.30;0.60;;;;;;;16.44;27.82;101768.19;5106791;28;20103;-63
2021/04/14 08:03:11;;;;;;;3.53;0.77;;;;;;;16.40;28.01;101773.47;5092769;28;20036;-62
2021/04/14 08:05:37;;;;;;;4.20;1.27;;;;;;;16.37;27.32;101776.13;5106713;28;20031;-62
2021/04/14 08:08:14;;;;;;;2.45;0.95;;;;;;;16.39;27.68;101771.75;5106189;28;20016;-62
2021/04/14 08:10:39;;;;;;;7.05;1.10;;;;;;;16.19;27.34;101780.66;5106604;28;20016;-62
2021/04/14 08:13:07;;;;;;;2.80;1.17;;;;;;;16.31;27.84;101779.69;5106035;28;20039;-63
2021/04/14 08:15:35;;;;;;;6.32;0.90;;;;;;;16.55;26.68;101778.53;5106273;28;20024;-63
2021/04/14 08:18:25;;;;;;;4.03;1.08;;;;;;;16.58;27.32;101782.91;5106396;28;20024;-62
2021/04/14 08:21:11;;;;;;;1.83;0.80;;;;;;;16.95;25.68;101786.78;5106344;28;20076;-62
2021/04/14 08:23:37;;;;;;;1.50;0.70;;;;;;;17.19;25.96;101776.88;5106123;28;20020;-62
2021/04/14 08:26:14;;;;;;;2.70;0.90;;;;;;;17.50;25.79;101786.06;5106329;28;20373;-62
2021/04/14 08:28:43;;;;;;;2.08;0.82;;;;;;;17.99;24.79;101781.75;5106070;28;20032;-63
2021/04/14 08:31:35;;;;;;;3.20;0.77;;;;;;;18.26;23.10;101776.06;5106181;28;20028;-62
2021/04/14 08:34:12;;;;;;;2.28;0.63;;;;;;;18.48;23.11;101780.91;5105921;28;20046;-62
2021/04/14 08:37:08;;;;;;;1.20;0.60;;;;;;;18.82;21.08;101774.94;5106040;28;20031;-63
2021/04/14 08:39:36;;;;;;;1.73;0.32;;;;;;;18.62;20.75;101778.88;5105174;28;20103;-62
2021/04/14 08:42:22;;;;;;;0.60;0.40;;;;;;;18.73;20.45;101776.00;5105704;28;20098;-63
2021/04/14 08:44:51;;;;;;;1.48;0.55;;;;;;;18.67;19.68;101781.41;5106062;28;20096;-62
2021/04/14 08:47:18;;;;;;;1.20;0.40;;;;;;;18.38;20.19;101773.22;5105620;28;20019;-62
2021/04/14 08:49:47;;;;;;;4.00;0.60;;;;;;;18.25;20.45;101772.56;5105913;28;20031;-62
2021/04/14 08:52:19;;;;;;;2.13;0.70;;;;;;;18.33;20.67;101772.41;5105507;28;20028;-62
2021/04/14 08:54:44;;;;;;;1.15;0.65;;;;;;;18.43;20.55;101781.88;5105813;28;20083;-62
2021/04/14 08:57:09;;;;;;;1.95;0.80;;;;;;;18.50;20.13;101784.38;5105496;28;20047;-63
2021/04/14 08:59:38;;;;;;;1.90;0.60;;;;;;;18.87;20.63;101780.97;5105515;28;20026;-61
2021/04/14 09:02:06;;;;;;;2.58;0.70;;;;;;;19.51;19.75;101776.06;5105380;28;20028;-63
2021/04/14 09:04:33;;;;;;;1.25;0.40;;;;;;;20.09;19.15;101777.28;5105458;28;20233;-63
2021/04/14 09:07:00;;;;;;;1.73;0.30;;;;;;;20.55;18.81;101781.31;5105114;28;20459;-63
2021/04/14 09:09:28;;;;;;;1.08;0.50;;;;;;;21.03;17.77;101791.38;5105229;28;20028;-62
2021/04/14 09:12:06;;;;;;;2.15;0.40;;;;;;;21.48;17.35;101781.19;5105063;28;20020;-62
2021/04/14 09:14:33;;;;;;;1.17;0.40;;;;;;;21.71;16.68;101776.94;5086617;28;20083;-64
2021/04/14 09:17:12;;;;;;;1.75;0.40;;;;;;;21.90;16.90;101779.84;5105266;28;20027;-63
2021/04/14 09:19:40;;;;;;;3.30;0.50;;;;;;;22.19;16.47;101777.94;5105543;28;20043;-63
2021/04/14 09:22:18;;;;;;;1.88;0.45;;;;;;;22.26;16.31;101774.16;5104692;28;20028;-63
2021/04/14 09:24:47;;;;;;;2.30;0.57;;;;;;;22.57;16.48;101776.59;5105133;28;20024;-62
2021/04/14 09:27:34;;;;;;;2.15;0.90;;;;;;;22.63;16.23;101782.56;5104769;28;20107;-63
2021/04/14 09:30:40;;;;;;;2.83;0.60;;;;;;;22.95;16.09;101782.25;5104574;28;20028;-62
2021/04/14 09:33:05;;;;;;;2.25;0.60;;;;;;;23.13;15.96;101779.81;5058886;28;20061;-63
2021/04/14 09:35:31;;;;;;;4.75;0.50;;;;;;;22.98;16.08;101782.13;5104907;28;20028;-64
2021/04/14 09:40:47;;;;;;;4.10;0.70;;;;;;;23.63;16.36;101773.38;5104725;28;20061;-63
2021/04/14 09:43:27;;;;;;;2.40;0.60;;;;;;;23.92;15.70;101781.00;5104377;28;20028;-62
2021/04/14 09:46:04;;;;;;;4.18;0.70;;;;;;;24.03;14.99;101780.53;5104737;28;20020;-62
2021/04/14 09:48:50;;;;;;;2.15;0.77;;;;;;;23.01;14.82;101783.78;5104701;28;20024;-62
2021/04/14 09:51:27;;;;;;;3.75;0.73;;;;;;;22.21;16.79;101783.16;5104499;28;20054;-63
2021/04/14 09:53:58;;;;;;;2.15;0.73;;;;;;;21.75;16.80;101784.72;5104260;28;20028;-63
2021/04/14 09:56:27;;;;;;;4.03;0.68;;;;;;;20.81;17.81;101789.38;5104553;28;20078;-63
2021/04/14 09:58:57;;;;;;;6.45;0.90;;;;;;;20.07;18.67;101782.59;5104641;28;20017;-63
2021/04/14 10:01:24;;;;;;;4.78;0.98;;;;;;;19.27;18.44;101776.63;5104360;28;20031;-63
2021/04/14 10:03:57;;;;;;;1.17;0.60;;;;;;;17.99;19.65;101786.16;5104125;28;20028;-63
2021/04/14 10:06:24;;;;;;;3.70;0.77;;;;;;;17.16;20.75;101782.16;5104201;28;20016;-63
2021/04/14 10:08:57;;;;;;;6.82;0.90;;;;;;;16.38;21.90;101785.72;5104032;28;20031;-64
2021/04/14 10:11:28;;;;;;;3.58;1.38;;;;;;;15.47;22.68;101787.34;5104054;28;20024;-63
2021/04/14 10:13:56;;;;;;;3.40;0.88;;;;;;;14.54;23.84;101788.63;5095968;28;20030;-62
2021/04/14 10:16:24;;;;;;;6.95;1.20;;;;;;;13.77;24.99;101782.59;5103724;28;20111;-62
2021/04/14 10:19:00;;;;;;;5.03;0.90;;;;;;;13.46;25.90;101785.16;5104220;28;20017;-63
2021/04/14 10:21:28;;;;;;;1.40;0.70;;;;;;;12.86;27.15;101800.63;5104139;28;20023;-62
2021/04/14 10:23:56;;;;;;;1.95;0.73;;;;;;;12.29;27.92;101797.69;5103518;28;20027;-63
2021/04/14 10:26:22;;;;;;;2.40;0.75;;;;;;;11.82;28.55;101794.72;5104086;28;20028;-63
2021/04/14 10:28:47;;;;;;;1.75;0.60;;;;;;;11.31;29.62;101797.69;5104265;28;20073;-63
2021/04/14 10:31:19;;;;;;;1.75;0.80;;;;;;;11.05;29.74;101806.06;5104080;28;20107;-63
2021/04/14 10:33:45;;;;;;;0.93;0.60;;;;;;;10.65;30.40;101805.53;5104037;28;20028;-63
2021/04/14 10:36:16;;;;;;;0.82;0.60;;;;;;;10.25;30.77;101805.81;5104199;28;20036;-64
2021/04/14 10:38:42;;;;;;;1.52;0.60;;;;;;;10.02;31.16;101806.31;5103983;28;20046;-63
2021/04/14 10:41:23;;;;;;;1.75;0.52;;;;;;;9.56;32.08;101803.81;5103907;28;20030;-63
2021/04/14 10:43:50;;;;;;;0.63;0.47;;;;;;;9.26;33.71;101813.63;5103279;28;20024;-63
2021/04/14 10:46:23;;;;;;;0.77;0.60;;;;;;;9.04;34.54;101814.91;5101757;28;20107;-65
2021/04/14 10:48:56;;;;;;;4.65;0.70;;;;;;;8.67;37.63;101821.00;5101354;28;20032;-63
2021/04/14 10:51:27;;;;;;;1.38;0.60;;;;;;;8.38;39.26;101826.38;5101599;28;20039;-64
2021/04/14 10:53:57;;;;;;;2.67;0.65;;;;;;;8.15;40.97;101823.22;5100774;28;20092;-64
2021/04/14 10:56:26;;;;;;;1.58;0.50;;;;;;;8.03;41.53;101813.47;5100684;28;20051;-62
2021/04/14 10:58:53;;;;;;;1.95;0.60;;;;;;;8.05;41.27;101814.38;5100738;28;20016;-62
2021/04/14 11:01:30;;;;;;;1.83;0.60;;;;;;;8.16;41.21;101812.06;5102255;28;20039;-62
2021/04/14 11:04:14;;;;;;;3.38;0.93;;;;;;;8.34;41.77;101816.78;5095983;28;20410;-62
2021/04/14 11:06:42;;;;;;;1.25;0.60;;;;;;;8.63;40.90;101824.38;5103178;28;20028;-63
2021/04/14 11:09:09;;;;;;;4.85;0.80;;;;;;;9.02;40.13;101812.28;5103326;28;20084;-62
2021/04/14 11:11:36;;;;;;;1.55;0.70;;;;;;;9.52;39.51;101807.19;5103590;28;20059;-63
2021/04/14 11:14:02;;;;;;;1.00;0.60;;;;;;;9.99;38.93;101813.16;5103023;28;20035;-63
2021/04/14 11:16:28;;;;;;;1.65;0.50;;;;;;;10.08;37.92;101812.47;5103460;28;20032;-63
2021/04/14 11:18:53;;;;;;;2.55;0.70;;;;;;;9.96;37.70;101813.13;5103543;28;20031;-62
2021/04/14 11:21:29;;;;;;;0.60;0.60;;;;;;;9.98;38.06;101814.03;5103078;28;20024;-62
2021/04/14 11:24:05;;;;;;;1.25;0.70;;;;;;;10.11;37.48;101818.56;5103178;28;20116;-62
2021/04/14 11:26:30;;;;;;;2.70;0.52;;;;;;;10.15;37.15;101814.28;5103193;28;20028;-62
2021/04/14 11:28:56;;;;;;;2.15;0.50;;;;;;;10.10;36.42;101808.16;5103020;28;20020;-63
2021/04/14 11:31:34;;;;;;;1.60;0.50;;;;;;;10.09;36.86;101809.91;5103244;28;20028;-63
2021/04/14 11:34:11;;;;;;;1.10;0.50;;;;;;;10.08;36.64;101818.50;5102948;28;20047;-62
2021/04/14 11:36:38;;;;;;;2.05;0.50;;;;;;;10.22;36.71;101808.38;5103359;28;20672;-62
2021/04/14 11:39:06;;;;;;;0.75;0.57;;;;;;;10.27;36.29;101814.50;5102915;28;20026;-62
2021/04/14 11:41:38;;;;;;;5.15;1.02;;;;;;;10.36;36.29;101818.09;5103045;28;20024;-62
2021/04/14 11:44:36;;;;;;;2.10;0.60;;;;;;;10.52;35.75;101814.03;5103002;28;20409;-62
2021/04/14 11:47:05;;;;;;;2.15;0.52;;;;;;;10.77;34.87;101825.63;5102742;28;20233;-62
2021/04/14 11:49:36;;;;;;;1.05;0.60;;;;;;;10.90;33.97;101820.59;5102904;28;20404;-62